« Back
NWS Peachtree City, Ga » Text Product » MCN Terminal Aerodrome Forecast


Printer-friendly Version
Current Version              Previous Versions:   1  2  3  4  5  6  7  8  9  

Terminal Aerodrome Forecast

990
FTUS42 KFFC 241121
TAFMCN
TAF
KMCN 241121Z 2412/2512 VRB03KT P6SM FEW080
     FM241400 26004KT P6SM SKC
     FM241800 22005KT P6SM FEW045
     FM250000 18003KT P6SM SKC=

USA.gov is the U.S. government's official web portal to all federal, state and local government web resources and services.